Time;durP1;ratioP1;P1;durP2;ratioP2;P2;SDS_P1;SDS_P2;PMS_P1;PMS_P2;Temp;Humidity;BMP_temperature;BMP_pressure;BME280_temperature;BME280_humidity;BME280_pressure;Samples;Min_cycle;Max_cycle;Signal;HPM_P1;HPM_P2
2023/04/05 00:01:18;;;;;;;;;;;;;;;-144.99;79.33;52468.47;5046769;28;19987;-76
2023/04/05 00:03:46;;;;;;;;;;;;;;;-144.99;79.22;52427.72;5049604;28;19929;-76
2023/04/05 00:06:15;;;;;;;;;;;;;;;-144.99;79.37;52435.88;5048779;28;19976;-76
2023/04/05 00:08:43;;;;;;;;;;;;;;;-144.99;79.56;52452.16;5043329;28;19929;-76
2023/04/05 00:11:10;;;;;;;;;;;;;;;-144.99;80.11;52452.16;5047078;28;19928;-77
2023/04/05 00:13:36;;;;;;;;;;;;;;;-144.99;80.46;52456.25;5043307;28;19964;-77
2023/04/05 00:16:05;;;;;;;;;;;;;;;-144.99;80.16;52450.13;5045203;28;20457;-79
2023/04/05 00:18:33;;;;;;;;;;;;;;;-144.99;80.15;52444.03;5040619;28;19964;-77
2023/04/05 00:20:59;;;;;;;;;;;;;;;-144.99;80.65;52415.47;5057391;28;19924;-80
2023/04/05 00:23:26;;;;;;;;;;;;;;;-144.99;81.35;52448.09;5061677;28;20307;-77
2023/04/05 00:25:52;;;;;;;;;;;;;;;-144.99;81.33;52460.31;5062970;28;19929;-76
2023/04/05 00:28:19;;;;;;;;;;;;;;;-144.99;81.35;52454.22;5064679;28;19951;-79
2023/04/05 00:30:45;;;;;;;;;;;;;;;-144.99;81.72;52444.03;5063858;28;19929;-77
2023/04/05 00:33:13;;;;;;;;;;;;;;;-144.99;81.67;52452.16;5073649;28;19928;-80
2023/04/05 00:35:40;;;;;;;;;;;;;;;-144.99;81.56;52441.97;5066890;28;19959;-81
2023/04/05 00:38:06;;;;;;;;;;;;;;;-144.99;81.82;52501.09;5059420;28;19925;-75
2023/04/05 00:40:33;;;;;;;;;;;;;;;-144.99;82.05;52456.25;5050900;28;20046;-76
2023/04/05 00:42:59;;;;;;;;;;;;;;;-144.99;82.29;52431.78;5046408;28;20422;-77
2023/04/05 00:45:26;;;;;;;;;;;;;;;-144.99;82.03;52464.41;5048490;28;20468;-77
2023/04/05 00:47:52;;;;;;;;;;;;;;;-144.99;81.81;52464.41;5041685;28;20406;-76
2023/04/05 00:50:20;;;;;;;;;;;;;;;-144.99;81.89;52427.72;5046405;28;20390;-76
2023/04/05 00:52:47;;;;;;;;;;;;;;;-144.99;81.88;52437.91;5058665;28;19996;-77
2023/04/05 00:55:14;;;;;;;;;;;;;;;-144.99;81.93;52444.03;5052379;28;20332;-77
2023/04/05 00:57:41;;;;;;;;;;;;;;;-144.99;81.87;52415.47;5054911;28;19936;-75
2023/04/05 01:00:10;;;;;;;;;;;;;;;-144.99;81.84;52391.03;5044590;28;19932;-77
2023/04/05 01:02:52;;;;;;;;;;;;;;;-144.99;81.93;52429.75;5043678;28;19932;-77
2023/04/05 01:05:34;;;;;;;;;;;;;;;-144.99;82.20;52437.91;5048562;28;20443;-77
2023/04/05 01:08:07;;;;;;;;;;;;;;;-144.99;82.25;52403.25;5044318;28;19964;-76
2023/04/05 01:10:36;;;;;;;;;;;;;;;-144.99;82.40;52435.88;5046439;28;19935;-78
2023/04/05 01:13:03;;;;;;;;;;;;;;;-144.99;82.71;52456.25;5041268;28;20023;-78
2023/04/05 01:15:29;;;;;;;;;;;;;;;-144.99;82.62;52431.78;5048400;28;19960;-76
2023/04/05 01:17:56;;;;;;;;;;;;;;;-144.99;82.58;52450.13;5046559;28;19968;-75
2023/04/05 01:20:27;;;;;;;;;;;;;;;-144.99;82.51;52427.72;5048775;28;20259;-76
2023/04/05 01:23:13;;;;;;;;;;;;;;;-144.99;82.38;52448.09;5051433;28;20303;-75
2023/04/05 01:25:59;;;;;;;;;;;;;;;-144.99;82.18;52439.94;5066824;28;19913;-77
2023/04/05 01:28:47;;;;;;;;;;;;;;;-144.99;82.08;52386.94;5050809;28;19971;-75
2023/04/05 01:31:19;;;;;;;;;;;;;;;-144.99;81.83;52456.25;5049449;28;19928;-75
2023/04/05 01:33:50;;;;;;;;;;;;;;;-144.99;80.03;52456.25;5050795;28;19972;-73
2023/04/05 01:36:20;;;;;;;;;;;;;;;-144.99;81.16;52419.56;5044957;28;19924;-74
2023/04/05 01:38:49;;;;;;;;;;;;;;;-144.99;80.25;52409.38;5043964;28;19927;-74
2023/04/05 01:41:16;;;;;;;;;;;;;;;-144.99;79.94;52423.63;5042334;28;19980;-75
2023/04/05 01:43:42;;;;;;;;;;;;;;;-144.99;79.98;52427.72;5047783;28;19960;-75
2023/04/05 01:46:09;;;;;;;;;;;;;;;-144.99;79.56;52431.78;5045797;28;19964;-73
2023/04/05 01:48:37;;;;;;;;;;;;;;;-144.99;80.38;52474.59;5047428;28;19956;-73
2023/04/05 01:51:03;;;;;;;;;;;;;;;-144.99;81.06;52460.31;5045857;28;20349;-74
2023/04/05 01:53:30;;;;;;;;;;;;;;;-144.99;82.04;52431.78;5048539;28;20018;-79
2023/04/05 01:55:59;;;;;;;;;;;;;;;-144.99;82.27;52427.72;5047788;28;20026;-76
2023/04/05 01:58:26;;;;;;;;;;;;;;;-144.99;82.21;52450.13;5044986;28;19936;-81
2023/04/05 02:00:53;;;;;;;;;;;;;;;-144.99;82.09;52431.78;5042980;28;19929;-77
2023/04/05 02:03:20;;;;;;;;;;;;;;;-144.99;81.85;52427.72;5049995;28;19963;-77
2023/04/05 02:05:48;;;;;;;;;;;;;;;-144.99;82.20;52484.78;4712949;28;10000470;-78
2023/04/05 02:08:14;;;;;;;;;;;;;;;-144.99;82.18;52448.09;5059964;28;19934;-78
2023/04/05 02:10:41;;;;;;;;;;;;;;;-144.99;82.33;52435.88;5053513;28;19933;-79
2023/04/05 02:13:08;;;;;;;;;;;;;;;-144.99;82.58;52480.72;5043197;28;19925;-78
2023/04/05 02:15:34;;;;;;;;;;;;;;;-144.99;82.33;52448.09;5035464;28;19999;-76
2023/04/05 02:18:01;;;;;;;;;;;;;;;-144.99;82.34;52456.25;5045165;28;19971;-77
2023/04/05 02:20:28;;;;;;;;;;;;;;;-144.99;82.31;52448.09;5044072;28;19928;-74
2023/04/05 02:22:57;;;;;;;;;;;;;;;-144.99;82.34;52464.41;5049021;28;19968;-75
2023/04/05 02:25:23;;;;;;;;;;;;;;;-144.99;82.06;52435.88;5043635;22;19949;-63
2023/04/05 02:27:50;;;;;;;;;;;;;;;-144.99;81.94;52435.88;5004785;28;19929;-63
2023/04/05 02:30:16;;;;;;;;;;;;;;;-144.99;81.90;52448.09;5002291;28;20394;-66
2023/04/05 02:32:43;;;;;;;;;;;;;;;-144.99;81.98;52454.22;5007959;28;19933;-66
2023/04/05 02:35:10;;;;;;;;;;;;;;;-144.99;80.11;52407.31;5007765;28;19926;-66
2023/04/05 02:37:36;;;;;;;;;;;;;;;-144.99;81.74;52452.16;5008066;28;19929;-66
2023/04/05 02:40:08;;;;;;;;;;;;;;;-144.99;82.44;52456.25;5007831;28;20191;-66
2023/04/05 02:42:35;;;;;;;;;;;;;;;-144.99;82.50;52419.56;5008026;28;19930;-66
2023/04/05 02:45:01;;;;;;;;;;;;;;;-144.99;82.61;52399.19;5007760;28;19929;-66
2023/04/05 02:47:28;;;;;;;;;;;;;;;-144.99;82.50;52435.88;5010262;28;19936;-62
2023/04/05 02:49:54;;;;;;;;;;;;;;;-144.99;81.27;52460.31;5010982;28;20026;-62
2023/04/05 02:52:21;;;;;;;;;;;;;;;-144.99;80.02;52411.41;5011052;28;19929;-61
2023/04/05 02:54:48;;;;;;;;;;;;;;;-144.99;81.39;52425.66;5010897;28;19926;-61
2023/04/05 02:57:16;;;;;;;;;;;;;;;-144.99;82.76;52446.06;5010736;28;20500;-61
2023/04/05 02:59:42;;;;;;;;;;;;;;;-144.99;83.04;52427.72;5011165;28;19968;-61
2023/04/05 03:02:09;;;;;;;;;;;;;;;-144.99;83.50;52431.78;5011131;28;19930;-61
2023/04/05 03:04:37;;;;;;;;;;;;;;;-144.99;83.98;52423.63;5014551;28;19929;-61
2023/04/05 03:07:04;;;;;;;;;;;;;;;-144.99;84.18;52435.88;5010096;28;19929;-65
2023/04/05 03:09:32;;;;;;;;;;;;;;;-144.99;84.58;52431.78;5013432;28;19929;-65
2023/04/05 03:12:00;;;;;;;;;;;;;;;-144.99;84.79;52464.41;5015754;28;19947;-65
2023/04/05 03:14:28;;;;;;;;;;;;;;;-144.99;85.05;52423.63;5012535;28;19940;-65
2023/04/05 03:16:54;;;;;;;;;;;;;;;-144.99;85.31;52441.97;5010040;28;19926;-72
2023/04/05 03:19:21;;;;;;;;;;;;;;;-144.99;85.35;52482.75;5005972;28;20020;-72
2023/04/05 03:21:48;;;;;;;;;;;;;;;-144.99;84.93;52464.41;5014684;28;19940;-72
2023/04/05 03:24:14;;;;;;;;;;;;;;;-144.99;85.25;52464.41;5023796;28;19925;-65
2023/04/05 03:26:41;;;;;;;;;;;;;;;-144.99;85.03;52448.09;5009389;28;19969;-65
2023/04/05 03:29:07;;;;;;;;;;;;;;;-144.99;85.70;52460.31;5014191;28;19983;-65
2023/04/05 03:31:35;;;;;;;;;;;;;;;-144.99;85.58;52460.31;5010154;28;19995;-65
2023/04/05 03:34:02;;;;;;;;;;;;;;;-144.99;85.21;52454.22;5015140;28;19925;-64
2023/04/05 03:36:29;;;;;;;;;;;;;;;-144.99;85.23;52427.72;5010575;28;20294;-64
2023/04/05 03:38:56;;;;;;;;;;;;;;;-144.99;85.05;52425.66;5009012;28;19941;-67
2023/04/05 03:41:22;;;;;;;;;;;;;;;-144.99;85.16;52464.41;5016668;28;19925;-67
2023/04/05 03:43:49;;;;;;;;;;;;;;;-144.99;85.49;52435.88;5011692;28;19988;-66
2023/04/05 03:46:16;;;;;;;;;;;;;;;-144.99;85.47;52454.22;5006594;28;19933;-66
2023/04/05 03:48:44;;;;;;;;;;;;;;;-144.99;85.58;52448.09;5015184;28;19975;-65
2023/04/05 03:51:10;;;;;;;;;;;;;;;-144.99;85.79;52480.72;5017875;28;20069;-67
2023/04/05 03:53:37;;;;;;;;;;;;;;;-144.99;86.06;52484.78;5013880;28;20421;-66
2023/04/05 03:56:03;;;;;;;;;;;;;;;-144.99;83.98;52407.31;5012199;28;19991;-62
2023/04/05 03:58:30;;;;;;;;;;;;;;;-144.99;84.00;52431.78;5015901;28;19925;-61
2023/04/05 04:00:56;;;;;;;;;;;;;;;-144.99;85.28;52476.63;5009897;28;20361;-61
2023/04/05 04:03:24;;;;;;;;;;;;;;;-144.99;84.52;52439.94;5013559;28;19987;-60
2023/04/05 04:05:52;;;;;;;;;;;;;;;-144.99;82.69;52427.72;5007917;28;19929;-61
2023/04/05 04:08:19;;;;;;;;;;;;;;;-144.99;85.01;52439.94;5012229;28;19989;-61
2023/04/05 04:10:46;;;;;;;;;;;;;;;-144.99;83.69;52448.09;5012607;28;19972;-62
2023/04/05 04:13:12;;;;;;;;;;;;;;;-144.99;83.14;52452.16;5007684;28;19964;-62
2023/04/05 04:15:39;;;;;;;;;;;;;;;-144.99;84.97;52472.56;5011289;28;19999;-62
2023/04/05 04:18:06;;;;;;;;;;;;;;;-144.99;85.56;52452.16;5007417;28;19987;-62
2023/04/05 04:20:32;;;;;;;;;;;;;;;-144.99;85.86;52476.63;5009113;28;20312;-59
2023/04/05 04:23:00;;;;;;;;;;;;;;;-144.99;85.91;52439.94;5015656;28;19995;-64
2023/04/05 04:25:29;;;;;;;;;;;;;;;-144.99;86.08;52395.09;5015012;28;19929;-66
2023/04/05 04:27:56;;;;;;;;;;;;;;;-144.99;85.82;52431.78;5011869;28;19973;-67
2023/04/05 04:30:23;;;;;;;;;;;;;;;-144.99;85.47;52419.56;5008916;28;19929;-67
2023/04/05 04:32:53;;;;;;;;;;;;;;;-144.99;85.79;52444.03;5006910;28;20370;-68
2023/04/05 04:35:23;;;;;;;;;;;;;;;-144.99;85.69;52413.44;5008777;28;19983;-68
2023/04/05 04:37:52;;;;;;;;;;;;;;;-144.99;85.72;52439.94;5012467;28;19929;-67
2023/04/05 04:40:21;;;;;;;;;;;;;;;-144.99;85.79;52452.16;5008719;28;20365;-63
2023/04/05 04:42:49;;;;;;;;;;;;;;;-144.99;85.81;52441.97;5008032;28;20330;-62
2023/04/05 04:45:16;;;;;;;;;;;;;;;-144.99;85.74;52429.75;5016152;28;20012;-61
2023/04/05 04:47:43;;;;;;;;;;;;;;;-144.99;85.74;52476.63;5006799;28;20024;-62
2023/04/05 04:50:10;;;;;;;;;;;;;;;-144.99;86.01;52454.22;5010509;28;20375;-61
2023/04/05 04:52:37;;;;;;;;;;;;;;;-144.99;83.87;52401.22;5008837;28;19929;-60
2023/04/05 04:55:04;;;;;;;;;;;;;;;-144.99;82.86;52423.63;5008763;28;20307;-61
2023/04/05 04:57:32;;;;;;;;;;;;;;;-144.99;82.72;52419.56;5019947;28;20383;-61
2023/04/05 04:59:58;;;;;;;;;;;;;;;-144.99;82.13;52419.56;5005392;28;19925;-61
2023/04/05 05:02:25;;;;;;;;;;;;;;;-144.99;82.05;52397.13;5011538;28;19925;-61
2023/04/05 05:04:52;;;;;;;;;;;;;;;-144.99;81.99;52417.53;5008600;28;19941;-61
2023/04/05 05:07:18;;;;;;;;;;;;;;;-144.99;82.02;52417.53;5010218;28;19964;-61
2023/04/05 05:09:45;;;;;;;;;;;;;;;-144.99;82.95;52464.41;5010048;28;19984;-67
2023/04/05 05:12:12;;;;;;;;;;;;;;;-144.99;84.82;52444.03;5011644;28;19971;-67
2023/04/05 05:14:40;;;;;;;;;;;;;;;-144.99;84.22;52421.59;5013459;28;19930;-67
2023/04/05 05:17:07;;;;;;;;;;;;;;;-144.99;84.97;52448.09;5015987;28;19934;-66
2023/04/05 05:19:34;;;;;;;;;;;;;;;-144.99;85.44;52411.41;5009153;28;19943;-72
2023/04/05 05:22:00;;;;;;;;;;;;;;;-144.99;85.50;52446.06;5006170;28;19967;-62
2023/04/05 05:24:27;;;;;;;;;;;;;;;-144.99;85.70;52415.47;5011607;28;19929;-63
2023/04/05 05:26:53;;;;;;;;;;;;;;;-144.99;85.77;52466.44;5009761;28;20322;-62
2023/04/05 05:29:20;;;;;;;;;;;;;;;-144.99;85.81;52466.44;5008523;28;20045;-63
2023/04/05 05:31:48;;;;;;;;;;;;;;;-144.99;86.05;52415.47;5006461;28;20020;-63
2023/04/05 05:34:14;;;;;;;;;;;;;;;-144.99;86.04;52395.09;5012051;28;19926;-63
2023/04/05 05:36:41;;;;;;;;;;;;;;;-144.99;86.21;52446.06;5010535;28;19930;-64
2023/04/05 05:39:07;;;;;;;;;;;;;;;-144.99;86.16;52419.56;5011980;28;19925;-64
2023/04/05 05:41:35;;;;;;;;;;;;;;;-144.99;85.96;52448.09;5016403;28;19936;-65
2023/04/05 05:44:01;;;;;;;;;;;;;;;-144.99;86.12;52427.72;5011720;28;19929;-62
2023/04/05 05:46:28;;;;;;;;;;;;;;;-144.99;86.32;52429.75;5008205;28;19988;-63
2023/04/05 05:48:56;;;;;;;;;;;;;;;-144.99;86.47;52403.25;5008070;28;19996;-62
2023/04/05 05:51:23;;;;;;;;;;;;;;;-144.99;86.49;52395.09;5010798;28;19961;-68
2023/04/05 05:53:50;;;;;;;;;;;;;;;-144.99;86.53;52431.78;5006200;28;19933;-69
2023/04/05 05:56:16;;;;;;;;;;;;;;;-144.99;86.68;52427.72;5012950;28;19925;-67
2023/04/05 05:58:43;;;;;;;;;;;;;;;-144.99;86.48;52444.03;5019929;28;20525;-67
2023/04/05 06:01:10;;;;;;;;;;;;;;;-144.99;86.67;52444.03;5007760;28;19995;-67
2023/04/05 06:03:37;;;;;;;;;;;;;;;-144.99;86.90;52391.03;5012112;28;19929;-67
2023/04/05 06:06:07;;;;;;;;;;;;;;;-144.99;86.39;52419.56;5007510;28;19975;-67
2023/04/05 06:08:34;;;;;;;;;;;;;;;-144.99;86.36;52403.25;5014200;28;19932;-68
2023/04/05 06:11:00;;;;;;;;;;;;;;;-144.99;86.42;52439.94;5011149;28;20301;-68
2023/04/05 06:13:27;;;;;;;;;;;;;;;-144.99;86.44;52444.03;5004880;28;19965;-67
2023/04/05 06:15:53;;;;;;;;;;;;;;;-144.99;86.19;52405.28;5014039;28;20349;-67
2023/04/05 06:18:20;;;;;;;;;;;;;;;-144.99;86.20;52415.47;5010149;28;19956;-68
2023/04/05 06:20:47;;;;;;;;;;;;;;;-144.99;86.11;52395.09;5006469;28;20063;-68
2023/04/05 06:23:15;;;;;;;;;;;;;;;-144.99;86.42;52452.16;5012955;28;19956;-68
2023/04/05 06:25:43;;;;;;;;;;;;;;;-144.99;86.11;52395.09;4998004;28;19930;-68
2023/04/05 06:28:09;;;;;;;;;;;;;;;-144.99;85.68;52374.72;5011754;28;20411;-67
2023/04/05 06:30:36;;;;;;;;;;;;;;;-144.99;85.68;52395.09;5019258;28;19991;-68
2023/04/05 06:33:04;;;;;;;;;;;;;;;-144.99;85.52;52382.88;5020199;28;19972;-69
2023/04/05 06:35:30;;;;;;;;;;;;;;;-144.99;85.48;52448.09;5018753;28;19925;-70
2023/04/05 06:37:57;;;;;;;;;;;;;;;-144.99;85.32;52403.25;5017302;28;19957;-70
2023/04/05 06:40:26;;;;;;;;;;;;;;;-144.99;85.24;52407.31;5019636;28;19930;-71
2023/04/05 06:42:52;;;;;;;;;;;;;;;-144.99;85.21;52401.22;5018234;28;19979;-74
2023/04/05 06:45:19;;;;;;;;;;;;;;;-144.99;86.02;52386.94;5019516;28;19937;-73
2023/04/05 06:47:46;;;;;;;;;;;;;;;-144.99;86.67;52391.03;5010390;28;19926;-74
2023/04/05 06:50:12;;;;;;;;;;;;;;;-144.99;86.59;52415.47;5010820;28;20382;-74
2023/04/05 06:52:39;;;;;;;;;;;;;;;-144.99;86.47;52395.09;5012323;28;19926;-73
2023/04/05 06:55:06;;;;;;;;;;;;;;;-144.99;87.39;52397.13;5007844;28;20028;-74
2023/04/05 06:57:35;;;;;;;;;;;;;;;-144.99;89.11;52403.25;5012407;28;19929;-70
2023/04/05 07:00:07;;;;;;;;;;;;;;;-144.99;89.04;52401.22;5012846;28;19929;-63
2023/04/05 07:02:34;;;;;;;;;;;;;;;-144.99;88.84;52393.06;5019920;28;20440;-63
2023/04/05 07:05:04;;;;;;;;;;;;;;;-144.99;88.79;52386.94;5016396;28;19932;-63
2023/04/05 07:07:31;;;;;;;;;;;;;;;-144.99;89.04;52427.72;5010885;28;19957;-63
2023/04/05 07:09:57;;;;;;;;;;;;;;;-144.99;88.69;52386.94;5010515;28;19973;-63
2023/04/05 07:12:24;;;;;;;;;;;;;;;-144.99;89.47;52399.19;5010188;28;19968;-62
2023/04/05 07:14:52;;;;;;;;;;;;;;;-144.99;89.76;52427.72;5011086;28;19925;-63
2023/04/05 07:17:18;;;;;;;;;;;;;;;-144.99;90.35;52386.94;5009353;28;19926;-62
2023/04/05 07:19:45;;;;;;;;;;;;;;;-144.99;89.63;52391.03;5008456;28;19972;-63
2023/04/05 07:22:11;;;;;;;;;;;;;;;-144.99;90.38;52391.03;5007070;28;19972;-63
2023/04/05 07:24:38;;;;;;;;;;;;;;;-144.99;90.32;52346.19;5013977;28;19930;-63
2023/04/05 07:27:05;;;;;;;;;;;;;;;-144.99;90.70;52391.03;5008003;28;20017;-63
2023/04/05 07:29:33;;;;;;;;;;;;;;;-144.99;89.71;52366.56;5012128;28;19936;-65
2023/04/05 07:32:01;;;;;;;;;;;;;;;-144.99;89.41;52368.59;5014483;28;20032;-66
2023/04/05 07:34:28;;;;;;;;;;;;;;;-144.99;89.87;52370.63;5012117;28;19929;-66
2023/04/05 07:36:54;;;;;;;;;;;;;;;-144.99;89.24;52362.50;5009616;28;20026;-66
2023/04/05 07:39:21;;;;;;;;;;;;;;;-144.99;88.20;52356.38;5019523;28;19937;-65
2023/04/05 07:41:47;;;;;;;;;;;;;;;-144.99;87.86;52395.09;5007699;28;20484;-65
2023/04/05 07:44:14;;;;;;;;;;;;;;;-144.99;87.21;52362.50;5016280;28;19926;-65
2023/04/05 07:46:43;;;;;;;;;;;;;;;-144.99;86.54;52374.72;5011385;28;20063;-66
2023/04/05 07:49:11;;;;;;;;;;;;;;;-144.99;85.70;52338.03;5009643;28;20016;-65
2023/04/05 07:51:42;;;;;;;;;;;;;;;-144.99;85.00;52382.88;5005681;28;20095;-65
2023/04/05 07:54:08;;;;;;;;;;;;;;;-144.99;84.68;52423.63;5010085;28;20053;-66
2023/04/05 07:56:36;;;;;;;;;;;;;;;-144.99;84.24;52395.09;5009283;28;20013;-65
2023/04/05 07:59:03;;;;;;;;;;;;;;;-144.99;83.81;52358.41;5012895;28;19930;-68
2023/04/05 08:01:30;;;;;;;;;;;;;;;-144.99;83.13;52370.63;5009058;28;19983;-66
2023/04/05 08:03:56;;;;;;;;;;;;;;;-144.99;82.99;52356.38;5012191;28;19944;-66
2023/04/05 08:06:27;;;;;;;;;;;;;;;-144.99;82.22;52362.50;5012432;28;20034;-66
2023/04/05 08:08:53;;;;;;;;;;;;;;;-144.99;82.18;52321.72;5012110;28;20374;-70
2023/04/05 08:11:20;;;;;;;;;;;;;;;-144.99;81.81;52329.88;5017825;28;19975;-70
2023/04/05 08:13:46;;;;;;;;;;;;;;;-144.99;80.84;52346.19;5008010;28;20347;-70
2023/04/05 08:16:13;;;;;;;;;;;;;;;-144.99;79.29;52350.25;5010813;28;19925;-70
2023/04/05 08:18:39;;;;;;;;;;;;;;;-144.99;78.40;52338.03;5013308;28;19933;-70
2023/04/05 08:21:06;;;;;;;;;;;;;;;-144.99;78.16;52333.94;5007224;28;19925;-71
2023/04/05 08:23:34;;;;;;;;;;;;;;;-144.99;76.88;52293.19;5013108;28;19991;-70
2023/04/05 08:26:01;;;;;;;;;;;;;;;-144.99;74.75;52317.66;5009205;28;19925;-68
2023/04/05 08:28:27;;;;;;;;;;;;;;;-144.99;73.80;52346.19;5007904;28;20004;-68
2023/04/05 08:30:55;;;;;;;;;;;;;;;-144.99;72.81;52358.41;5008412;28;19980;-69
2023/04/05 08:33:21;;;;;;;;;;;;;;;-144.99;71.32;52311.53;5015747;28;19929;-69
2023/04/05 08:35:48;;;;;;;;;;;;;;;-144.99;71.74;52329.88;5010648;28;19970;-69
2023/04/05 08:38:14;;;;;;;;;;;;;;;-144.99;71.05;52317.66;5009720;28;19926;-69
2023/04/05 08:40:43;;;;;;;;;;;;;;;-144.99;70.41;52321.72;5015837;28;19971;-69
2023/04/05 08:43:11;;;;;;;;;;;;;;;-144.99;69.72;52289.13;5011414;28;20397;-69
2023/04/05 08:45:42;;;;;;;;;;;;;;;-144.99;69.52;52293.19;5007630;28;20357;-69
2023/04/05 08:48:09;;;;;;;;;;;;;;;-144.99;68.26;52276.88;5006801;28;19969;-69
2023/04/05 08:50:35;;;;;;;;;;;;;;;-144.99;68.53;52297.25;5009880;28;19964;-69
2023/04/05 08:53:02;;;;;;;;;;;;;;;-144.99;68.25;52301.34;5010380;28;20064;-69
2023/04/05 08:55:28;;;;;;;;;;;;;;;-144.99;67.48;52276.88;5013045;28;19988;-69
2023/04/05 08:57:59;;;;;;;;;;;;;;;-144.99;66.02;52301.34;5008163;28;19929;-69
2023/04/05 09:00:26;;;;;;;;;;;;;;;-144.99;65.03;52317.66;5009061;28;20430;-69
2023/04/05 09:02:55;;;;;;;;;;;;;;;-144.99;64.60;52256.50;5002648;28;19933;-69
2023/04/05 09:05:23;;;;;;;;;;;;;;;-144.99;64.03;52297.25;5015675;28;19965;-69
2023/04/05 09:07:50;;;;;;;;;;;;;;;-144.99;64.35;52276.88;5008870;28;19979;-68
2023/04/05 09:10:18;;;;;;;;;;;;;;;-144.99;64.30;52260.56;5012691;28;19972;-69
2023/04/05 09:12:45;;;;;;;;;;;;;;;-144.99;64.33;52276.88;5008620;28;19969;-69
2023/04/05 09:15:14;;;;;;;;;;;;;;;-144.99;64.24;52276.88;5007970;28;19995;-67
2023/04/05 09:17:41;;;;;;;;;;;;;;;-144.99;64.30;52260.56;5007191;28;19971;-69
2023/04/05 09:20:08;;;;;;;;;;;;;;;-144.99;64.77;52289.13;5015034;28;20282;-70
2023/04/05 09:22:42;;;;;;;;;;;;;;;-144.99;64.42;52272.81;5014232;28;20012;-69
2023/04/05 09:25:09;;;;;;;;;;;;;;;-144.99;64.10;52264.66;5010576;28;19975;-69
2023/04/05 09:27:35;;;;;;;;;;;;;;;-144.99;64.24;52258.53;5006469;28;19929;-69
2023/04/05 09:30:02;;;;;;;;;;;;;;;-144.99;63.44;52260.56;5007771;28;20175;-70
2023/04/05 09:32:30;;;;;;;;;;;;;;;-144.99;62.87;52238.16;5011117;28;20456;-69
2023/04/05 09:34:59;;;;;;;;;;;;;;;-144.99;62.20;52244.28;5016702;28;20375;-69
2023/04/05 09:37:26;;;;;;;;;;;;;;;-144.99;61.88;52270.78;5004520;28;19988;-70
2023/04/05 09:40:02;;;;;;;;;;;;;;;-144.99;62.49;52219.81;5007481;28;20001;-69
2023/04/05 09:42:32;;;;;;;;;;;;;;;-144.99;61.97;52230.00;4999435;28;20482;-70
2023/04/05 09:45:01;;;;;;;;;;;;;;;-144.99;62.69;52270.78;4994935;28;20047;-70
2023/04/05 09:47:30;;;;;;;;;;;;;;;-144.99;61.67;52205.53;5001028;28;19936;-70
2023/04/05 09:49:57;;;;;;;;;;;;;;;-144.99;61.69;52219.81;4999007;28;20384;-70
2023/04/05 09:52:25;;;;;;;;;;;;;;;-144.99;61.77;52236.13;5004859;28;19961;-70
2023/04/05 09:54:52;;;;;;;;;;;;;;;-144.99;61.70;52197.41;5004333;28;19930;-71
2023/04/05 09:57:19;;;;;;;;;;;;;;;-144.99;60.36;52183.13;5002251;28;19935;-71
2023/04/05 09:59:46;;;;;;;;;;;;;;;-144.99;59.77;52203.50;5006638;28;19925;-69
2023/04/05 10:02:13;;;;;;;;;;;;;;;-144.99;59.29;52181.09;5004408;28;19933;-69
2023/04/05 10:04:40;;;;;;;;;;;;;;;-144.99;59.15;52203.50;5010565;28;19952;-70
2023/04/05 10:07:09;;;;;;;;;;;;;;;-144.99;59.24;52179.06;5010577;28;19925;-70
2023/04/05 10:09:36;;;;;;;;;;;;;;;-144.99;58.54;52203.50;5010353;28;19929;-71
2023/04/05 10:12:03;;;;;;;;;;;;;;;-144.99;58.28;52199.44;5008758;28;19933;-71
2023/04/05 10:14:30;;;;;;;;;;;;;;;-144.99;58.98;52211.66;5004397;28;19956;-71
2023/04/05 10:16:59;;;;;;;;;;;;;;;-144.99;58.80;52164.78;5005447;28;19929;-71
2023/04/05 10:19:28;;;;;;;;;;;;;;;-144.99;57.76;52179.06;5004332;28;19935;-71
2023/04/05 10:21:55;;;;;;;;;;;;;;;-144.99;57.55;52195.34;5003832;28;19933;-71
2023/04/05 10:24:33;;;;;;;;;;;;;;;-144.99;58.43;52240.19;5002762;28;20016;-71
2023/04/05 10:27:04;;;;;;;;;;;;;;;-144.99;59.71;52293.19;5006548;28;20436;-70
2023/04/05 10:29:34;;;;;;;;;;;;;;;-144.99;60.12;52287.06;4999457;28;21175;-70
2023/04/05 10:32:05;;;;;;;;;;;;;;;-144.99;61.38;52313.56;5001306;28;21151;-70
2023/04/05 10:34:40;;;;;;;;;;;;;;;-144.99;61.32;52174.97;5001509;28;19925;-70
2023/04/05 10:37:07;;;;;;;;;;;;;;;-144.99;60.96;52242.22;5002934;28;20193;-70
2023/04/05 10:39:40;;;;;;;;;;;;;;;-144.99;60.51;52172.94;5002303;28;19934;-70
2023/04/05 10:42:11;;;;;;;;;;;;;;;-144.99;59.45;52256.50;5001997;28;20363;-72
2023/04/05 10:44:39;;;;;;;;;;;;;;;-144.99;59.76;52254.47;5000518;28;19938;-69
2023/04/05 10:47:07;;;;;;;;;;;;;;;-144.99;59.16;52244.28;4978556;28;20403;-70
2023/04/05 10:49:37;;;;;;;;;;;;;;;-144.99;59.58;52276.88;4981256;28;19932;-70
2023/04/05 10:52:03;;;;;;;;;;;;;;;-144.99;60.17;52297.25;4979557;28;20000;-70
2023/04/05 10:54:32;;;;;;;;;;;;;;;-144.99;60.14;52262.63;4981283;28;20062;-70
2023/04/05 10:57:01;;;;;;;;;;;;;;;-144.99;60.47;52264.66;4983625;28;20045;-70
2023/04/05 10:59:28;;;;;;;;;;;;;;;-144.99;61.11;52299.31;4980953;28;19925;-70
2023/04/05 11:01:55;;;;;;;;;;;;;;;-144.99;61.22;52313.56;4984027;28;19929;-70
2023/04/05 11:04:21;;;;;;;;;;;;;;;-144.99;61.81;52321.72;4981458;28;20016;-71
2023/04/05 11:07:08;;;;;;;;;;;;;;;-144.99;62.21;52321.72;4982650;28;19929;-69
2023/04/05 11:09:35;;;;;;;;;;;;;;;-144.99;62.18;52303.38;4985496;28;19934;-69
2023/04/05 11:12:03;;;;;;;;;;;;;;;-144.99;62.80;52338.03;4985329;28;19941;-69
2023/04/05 11:14:35;;;;;;;;;;;;;;;-144.99;63.44;52378.78;4988044;28;20268;-69
2023/04/05 11:17:02;;;;;;;;;;;;;;;-144.99;63.92;52325.81;4989913;28;19930;-69
2023/04/05 11:19:47;;;;;;;;;;;;;;;-144.99;63.78;52342.09;4985817;28;20060;-70
2023/04/05 11:22:15;;;;;;;;;;;;;;;-144.99;64.34;52336.00;4986474;28;19930;-69
2023/04/05 11:24:50;;;;;;;;;;;;;;;-144.99;64.28;52350.25;4986271;28;20020;-69
2023/04/05 11:27:24;;;;;;;;;;;;;;;-144.99;64.39;52321.72;4985682;28;20007;-69
2023/04/05 11:29:53;;;;;;;;;;;;;;;-144.99;64.66;52280.97;4985057;28;20276;-69
2023/04/05 11:32:20;;;;;;;;;;;;;;;-144.99;64.84;52297.25;4987653;28;20012;-69
2023/04/05 11:34:58;;;;;;;;;;;;;;;-144.99;65.17;52329.88;4986443;28;20363;-69
2023/04/05 11:37:44;;;;;;;;;;;;;;;-144.99;64.57;52346.19;4985153;28;20016;-69
2023/04/05 11:40:29;;;;;;;;;;;;;;;-144.99;64.12;52321.72;4984531;28;19977;-69
2023/04/05 11:43:08;;;;;;;;;;;;;;;-144.99;63.74;52301.34;4984574;28;20038;-71
2023/04/05 11:45:35;;;;;;;;;;;;;;;-144.99;63.69;52260.56;4986199;28;19937;-69
2023/04/05 11:48:05;;;;;;;;;;;;;;;-144.99;63.56;52264.66;4982942;28;20354;-69
2023/04/05 11:50:32;;;;;;;;;;;;;;;-144.99;63.31;52285.03;4984647;28;20036;-69
2023/04/05 11:53:08;;;;;;;;;;;;;;;-144.99;63.30;52285.03;4985510;28;19934;-69
2023/04/05 11:55:35;;;;;;;;;;;;;;;-144.99;63.30;52301.34;4983875;28;19930;-69
2023/04/05 11:58:01;;;;;;;;;;;;;;;-144.99;63.04;52256.50;4985118;28;19926;-69
2023/04/05 12:00:29;;;;;;;;;;;;;;;-144.99;61.34;52262.63;4983450;28;19995;-69
2023/04/05 12:02:56;;;;;;;;;;;;;;;-144.99;61.38;52285.03;4984335;28;20375;-70
2023/04/05 12:05:22;;;;;;;;;;;;;;;-144.99;60.96;52270.78;4983572;28;19977;-69
2023/04/05 12:07:52;;;;;;;;;;;;;;;-144.99;60.98;52260.56;4984864;28;20512;-69
2023/04/05 12:10:19;;;;;;;;;;;;;;;-144.99;60.84;52221.84;4983655;28;19941;-69
2023/04/05 12:12:47;;;;;;;;;;;;;;;-144.99;59.62;52069.00;4985172;28;19936;-70
2023/04/05 12:15:17;;;;;;;;;;;;;;;-144.99;58.93;52032.31;4986370;28;19933;-70
2023/04/05 12:17:49;;;;;;;;;;;;;;;-144.99;57.33;52028.22;4983823;28;20012;-70
2023/04/05 12:20:18;;;;;;;;;;;;;;;-144.99;56.54;51999.69;4983055;28;20024;-69
2023/04/05 12:22:47;;;;;;;;;;;;;;;-144.99;56.47;51983.41;4984501;28;19930;-69
2023/04/05 12:25:13;;;;;;;;;;;;;;;-144.99;55.73;52018.03;4987591;28;19944;-71
2023/04/05 12:27:40;;;;;;;;;;;;;;;-144.99;55.60;52179.06;4985993;28;19938;-71
2023/04/05 12:30:07;;;;;;;;;;;;;;;-144.99;55.96;52195.34;4984945;28;19953;-71